createdAt,value
2018-08-10T00:00:18.200Z,15.71
2018-08-10T00:02:46.803Z,15.70
2018-08-10T00:05:15.395Z,15.70
2018-08-10T00:07:44.413Z,15.68
2018-08-10T00:10:14.026Z,15.67
2018-08-10T00:12:42.594Z,15.64
2018-08-10T00:15:12.480Z,15.67
2018-08-10T00:17:41.363Z,15.68
2018-08-10T00:20:12.306Z,15.68
2018-08-10T00:22:40.912Z,15.67
2018-08-10T00:25:14.119Z,15.65
2018-08-10T00:27:42.820Z,15.62
2018-08-10T00:30:14.885Z,15.57
2018-08-10T00:32:45.826Z,15.54
2018-08-10T00:35:14.393Z,15.57
2018-08-10T00:37:43.981Z,15.59
2018-08-10T00:40:15.929Z,15.63
2018-08-10T00:42:44.813Z,15.67
2018-08-10T00:45:14.327Z,15.67
2018-08-10T00:47:43.671Z,15.65
2018-08-10T00:50:13.333Z,15.66
2018-08-10T00:52:42.536Z,15.69
2018-08-10T00:55:12.649Z,15.69
2018-08-10T00:57:41.549Z,15.70
2018-08-10T01:00:39.647Z,15.80
2018-08-10T01:03:08.231Z,15.76
2018-08-10T01:05:36.774Z,15.75
2018-08-10T01:08:05.301Z,15.74
2018-08-10T01:10:33.899Z,15.76
2018-08-10T01:13:02.646Z,15.75
2018-08-10T01:15:31.113Z,15.72
2018-08-10T01:17:59.607Z,15.71
2018-08-10T01:20:28.209Z,15.64
2018-08-10T01:26:22.793Z,15.45
2018-08-10T01:28:51.429Z,15.42
2018-08-10T01:31:20.117Z,15.35
2018-08-10T01:33:48.708Z,15.31
2018-08-10T01:36:17.194Z,15.24
2018-08-10T01:38:45.769Z,15.15
2018-08-10T01:41:14.346Z,15.05
2018-08-10T01:43:42.903Z,15.00
2018-08-10T01:46:11.375Z,14.98
2018-08-10T01:48:39.857Z,14.99
2018-08-10T01:51:08.348Z,14.93
2018-08-10T01:53:36.974Z,14.92
2018-08-10T01:56:05.511Z,14.89
2018-08-10T01:58:34.167Z,14.92
2018-08-10T02:01:02.701Z,14.89
2018-08-10T02:03:31.282Z,14.87
2018-08-10T02:05:59.844Z,14.86
2018-08-10T02:08:28.295Z,14.84
2018-08-10T02:10:56.806Z,14.84
2018-08-10T02:13:25.282Z,14.77
2018-08-10T02:15:53.817Z,14.73
2018-08-10T02:18:22.353Z,14.67
2018-08-10T02:20:52.672Z,14.65
2018-08-10T02:23:21.305Z,14.61
2018-08-10T02:25:49.851Z,14.59
2018-08-10T02:28:18.466Z,14.61
2018-08-10T02:30:47.017Z,14.60
2018-08-10T02:33:15.604Z,14.56
2018-08-10T02:35:44.137Z,14.55
2018-08-10T02:38:12.684Z,14.54
2018-08-10T02:40:41.202Z,14.51
2018-08-10T02:43:09.741Z,14.46
2018-08-10T02:45:46.292Z,14.49
2018-08-10T02:48:14.876Z,14.47
2018-08-10T02:50:43.402Z,14.46
2018-08-10T02:53:11.979Z,14.46
2018-08-10T02:55:40.557Z,14.44
2018-08-10T02:58:09.476Z,14.40
2018-08-10T03:00:37.925Z,14.36
2018-08-10T03:03:06.814Z,14.34
2018-08-10T03:05:35.266Z,14.36
2018-08-10T03:08:03.762Z,14.33
2018-08-10T03:10:32.233Z,14.34
2018-08-10T03:13:00.737Z,14.32
2018-08-10T03:15:29.322Z,14.29
2018-08-10T03:17:57.911Z,14.29
2018-08-10T03:20:26.505Z,14.28
2018-08-10T03:22:54.983Z,14.24
2018-08-10T03:25:23.454Z,14.21
2018-08-10T03:27:51.962Z,14.22
2018-08-10T03:30:20.628Z,14.22
2018-08-10T03:32:49.089Z,14.21
2018-08-10T03:35:17.565Z,14.20
2018-08-10T03:37:46.109Z,14.17
2018-08-10T03:40:15.763Z,14.17
2018-08-10T03:42:44.446Z,14.15
2018-08-10T03:45:12.913Z,14.13
2018-08-10T03:47:41.726Z,14.14
2018-08-10T03:50:12.265Z,14.14
2018-08-10T03:52:41.153Z,14.10
2018-08-10T03:55:10.350Z,14.13
2018-08-10T03:57:39.409Z,14.14
2018-08-10T04:00:09.977Z,14.13
2018-08-10T04:02:38.788Z,14.13
2018-08-10T04:05:08.264Z,14.12
2018-08-10T04:07:36.745Z,14.14
2018-08-10T04:10:06.698Z,14.13
2018-08-10T04:12:35.728Z,14.12
2018-08-10T04:15:05.254Z,14.07
2018-08-10T04:17:33.781Z,14.03
2018-08-10T04:20:02.257Z,14.02
2018-08-10T04:22:30.837Z,13.99
2018-08-10T04:24:59.405Z,14.02
2018-08-10T04:27:27.851Z,14.02
2018-08-10T04:29:56.464Z,13.98
2018-08-10T04:32:25.131Z,13.97
2018-08-10T04:34:53.626Z,13.97
2018-08-10T04:37:22.135Z,14.00
2018-08-10T04:39:50.846Z,14.02
2018-08-10T04:42:19.436Z,14.04
2018-08-10T04:44:47.992Z,14.04
2018-08-10T04:47:16.705Z,14.00
2018-08-10T04:49:45.252Z,13.97
2018-08-10T04:52:13.734Z,13.99
2018-08-10T04:54:42.520Z,14.01
2018-08-10T04:57:11.082Z,14.03
2018-08-10T04:59:39.597Z,14.06
2018-08-10T05:02:08.261Z,14.09
2018-08-10T05:04:36.765Z,14.13
2018-08-10T05:07:05.261Z,14.19
2018-08-10T05:09:33.822Z,14.24
2018-08-10T05:12:02.446Z,14.29
2018-08-10T05:14:31.001Z,14.33
2018-08-10T05:16:59.568Z,14.39
2018-08-10T05:19:28.079Z,14.44
2018-08-10T05:21:56.642Z,14.55
2018-08-10T05:24:25.135Z,14.73
2018-08-10T05:26:53.788Z,14.94
2018-08-10T05:29:22.397Z,15.11
2018-08-10T05:31:50.857Z,15.28
2018-08-10T05:34:19.350Z,15.43
2018-08-10T05:36:47.856Z,15.48
2018-08-10T05:39:16.404Z,15.50
2018-08-10T05:41:44.912Z,15.58
2018-08-10T05:44:13.349Z,15.84
2018-08-10T05:46:41.886Z,16.15
2018-08-10T05:49:10.535Z,16.31
2018-08-10T05:51:39.053Z,16.33
2018-08-10T05:54:08.165Z,16.32
2018-08-10T05:56:36.797Z,16.31
2018-08-10T05:59:05.282Z,16.25
2018-08-10T06:01:33.746Z,16.22
2018-08-10T06:04:02.493Z,16.24
2018-08-10T06:06:30.840Z,16.21
2018-08-10T06:08:59.364Z,16.19
2018-08-10T06:11:27.935Z,16.20
2018-08-10T06:13:56.513Z,16.16
2018-08-10T06:16:24.949Z,16.13
2018-08-10T06:18:53.556Z,16.10
2018-08-10T06:21:22.062Z,16.10
2018-08-10T06:23:50.513Z,16.10
2018-08-10T06:26:19.111Z,16.17
2018-08-10T06:28:47.689Z,16.27
2018-08-10T06:31:16.262Z,16.35
2018-08-10T06:33:44.813Z,16.40
2018-08-10T06:36:13.345Z,16.46
2018-08-10T06:38:41.812Z,16.46
2018-08-10T06:41:10.610Z,16.49
2018-08-10T06:43:39.088Z,16.49
2018-08-10T06:46:07.576Z,16.47
2018-08-10T06:48:36.055Z,16.47
2018-08-10T06:51:04.931Z,16.40
2018-08-10T06:53:33.412Z,16.48
2018-08-10T06:56:01.990Z,16.56
2018-08-10T06:58:30.496Z,16.70
2018-08-10T07:00:59.098Z,16.79
2018-08-10T07:03:27.550Z,16.86
2018-08-10T07:05:55.998Z,17.01
2018-08-10T07:08:24.460Z,17.07
2018-08-10T07:10:52.961Z,17.13
2018-08-10T07:13:21.540Z,17.21
2018-08-10T07:15:50.061Z,17.31
2018-08-10T07:18:18.752Z,17.37
2018-08-10T07:20:47.344Z,17.34
2018-08-10T07:23:15.821Z,17.42
2018-08-10T07:25:44.312Z,17.49
2018-08-10T07:28:12.889Z,17.55
2018-08-10T07:30:41.408Z,17.62
2018-08-10T07:33:09.857Z,17.70
2018-08-10T07:35:38.360Z,17.87
2018-08-10T07:38:06.914Z,18.04
2018-08-10T07:40:35.393Z,18.02
2018-08-10T07:43:03.910Z,17.96
2018-08-10T07:45:32.466Z,17.98
2018-08-10T07:48:01.054Z,18.00
2018-08-10T07:50:29.641Z,17.97
2018-08-10T07:52:58.125Z,17.87
2018-08-10T07:55:26.608Z,18.08
2018-08-10T07:57:55.068Z,18.19
2018-08-10T08:00:23.604Z,18.15
2018-08-10T08:02:52.186Z,18.15
2018-08-10T08:05:24.201Z,18.06
2018-08-10T08:07:52.757Z,18.06
2018-08-10T08:10:21.240Z,18.14
2018-08-10T08:12:49.872Z,18.22
2018-08-10T08:15:18.448Z,18.36
2018-08-10T08:17:47.072Z,18.47
2018-08-10T08:20:15.592Z,18.49
2018-08-10T08:22:44.097Z,18.52
2018-08-10T08:25:12.612Z,18.64
2018-08-10T08:27:41.180Z,18.68
2018-08-10T08:30:10.384Z,18.81
2018-08-10T08:32:38.984Z,18.88
2018-08-10T08:35:08.833Z,18.96
2018-08-10T08:37:39.330Z,19.06
2018-08-10T08:40:15.454Z,19.05
2018-08-10T08:42:47.385Z,19.11
2018-08-10T08:46:04.248Z,19.05
2018-08-10T08:48:36.502Z,19.26
2018-08-10T08:51:09.219Z,19.45
2018-08-10T08:53:39.655Z,19.52
2018-08-10T08:56:19.590Z,19.79
2018-08-10T08:58:51.442Z,19.98
2018-08-10T09:01:21.678Z,19.98
2018-08-10T09:04:22.979Z,20.12
2018-08-10T09:06:53.387Z,20.16
2018-08-10T09:09:37.525Z,20.35
2018-08-10T09:12:21.669Z,20.25
2018-08-10T09:15:03.495Z,20.59
2018-08-10T09:17:34.429Z,20.43
2018-08-10T09:20:04.595Z,20.33
2018-08-10T09:22:35.323Z,20.52
2018-08-10T09:25:06.535Z,20.63
2018-08-10T09:27:37.218Z,20.80
2018-08-10T09:30:08.797Z,20.77
2018-08-10T09:32:39.938Z,21.04
2018-08-10T09:35:11.001Z,21.18
2018-08-10T09:37:41.219Z,21.23
2018-08-10T09:40:14.392Z,21.33
2018-08-10T09:42:46.026Z,21.34
2018-08-10T09:45:16.582Z,21.38
2018-08-10T09:47:47.560Z,21.42
2018-08-10T09:50:18.168Z,21.43
2018-08-10T09:53:01.168Z,21.46
2018-08-10T09:55:34.292Z,21.13
2018-08-10T09:58:10.473Z,20.79
2018-08-10T10:00:45.818Z,20.86
2018-08-10T10:03:25.034Z,20.97
2018-08-10T10:05:57.815Z,20.98
2018-08-10T10:08:28.811Z,21.12
2018-08-10T10:10:59.547Z,21.26
2018-08-10T10:13:29.408Z,21.40
2018-08-10T10:15:59.585Z,21.48
2018-08-10T10:18:40.615Z,21.37
2018-08-10T10:21:21.311Z,21.43
2018-08-10T10:23:52.149Z,21.54
2018-08-10T10:26:22.511Z,21.42
2018-08-10T10:28:52.655Z,21.43
2018-08-10T10:31:22.689Z,21.62
2018-08-10T10:33:52.163Z,21.66
2018-08-10T10:36:22.622Z,21.51
2018-08-10T10:38:53.886Z,21.38
2018-08-10T10:41:49.617Z,21.29
2018-08-10T10:44:18.170Z,21.35
2018-08-10T10:46:46.639Z,21.65
2018-08-10T10:49:15.438Z,22.21
2018-08-10T10:51:44.066Z,22.38
2018-08-10T10:54:12.610Z,22.61
2018-08-10T10:56:41.285Z,22.69
2018-08-10T10:59:09.803Z,22.41
2018-08-10T11:01:38.383Z,22.56
2018-08-10T11:04:06.831Z,22.73
2018-08-10T11:06:35.347Z,22.71
2018-08-10T11:09:05.030Z,22.47
2018-08-10T11:11:33.524Z,22.58
2018-08-10T11:14:02.097Z,22.68
2018-08-10T11:16:30.547Z,22.78
2018-08-10T11:18:59.065Z,22.99
2018-08-10T11:21:27.544Z,23.36
2018-08-10T11:23:56.050Z,23.59
2018-08-10T11:26:24.612Z,23.30
2018-08-10T11:28:53.212Z,23.19
2018-08-10T11:31:21.774Z,23.07
2018-08-10T11:33:50.263Z,22.99
2018-08-10T11:36:18.717Z,22.52
2018-08-10T11:38:47.221Z,22.14
2018-08-10T11:41:15.712Z,21.94
2018-08-10T11:43:44.292Z,21.82
2018-08-10T11:46:16.405Z,21.84
2018-08-10T11:48:45.025Z,22.44
2018-08-10T11:51:14.945Z,22.86
2018-08-10T11:53:43.609Z,23.32
2018-08-10T11:56:12.312Z,23.73
2018-08-10T11:58:40.814Z,23.83
2018-08-10T12:01:09.324Z,24.03
2018-08-10T12:03:37.808Z,24.26
2018-08-10T12:06:06.399Z,24.56
2018-08-10T12:08:34.862Z,24.64
2018-08-10T12:11:03.332Z,24.79
2018-08-10T12:13:31.890Z,25.11
2018-08-10T12:16:00.439Z,25.28
2018-08-10T12:18:28.962Z,25.11
2018-08-10T12:20:57.617Z,25.15
2018-08-10T12:23:26.163Z,24.40
2018-08-10T12:25:54.717Z,24.37
2018-08-10T12:28:24.534Z,24.87
2018-08-10T12:30:53.044Z,24.93
2018-08-10T12:33:22.029Z,25.27
2018-08-10T12:35:50.614Z,25.18
2018-08-10T12:38:19.195Z,25.38
2018-08-10T12:40:47.869Z,25.61
2018-08-10T12:43:16.651Z,25.72
2018-08-10T12:45:45.137Z,25.26
2018-08-10T12:48:13.814Z,24.36
2018-08-10T12:50:42.392Z,24.93
2018-08-10T12:53:11.093Z,24.96
2018-08-10T12:55:39.866Z,25.67
2018-08-10T12:58:08.499Z,25.90
2018-08-10T13:00:37.064Z,25.99
2018-08-10T13:03:05.710Z,25.95
2018-08-10T13:05:34.218Z,25.74
2018-08-10T13:08:02.819Z,26.27
2018-08-10T13:10:31.405Z,26.68
2018-08-10T13:12:59.951Z,25.76
2018-08-10T13:15:28.549Z,25.52
2018-08-10T13:17:57.118Z,25.62
2018-08-10T13:20:25.660Z,25.53
2018-08-10T13:22:54.226Z,25.76
2018-08-10T13:25:22.784Z,26.09
2018-08-10T13:27:51.453Z,26.19
2018-08-10T13:30:20.053Z,26.15
2018-08-10T13:32:48.608Z,26.22
2018-08-10T13:35:43.776Z,25.50
2018-08-10T13:38:12.276Z,25.27
2018-08-10T13:40:40.928Z,25.59
2018-08-10T13:43:09.568Z,25.73
2018-08-10T13:45:38.087Z,25.52
2018-08-10T13:48:07.001Z,25.89
2018-08-10T13:50:35.705Z,26.06
2018-08-10T13:53:04.232Z,26.31
2018-08-10T13:55:32.851Z,26.42
2018-08-10T13:58:01.557Z,26.35
2018-08-10T14:00:30.126Z,26.36
2018-08-10T14:02:58.607Z,26.20
2018-08-10T14:05:27.154Z,25.63
2018-08-10T14:07:55.655Z,25.66
2018-08-10T14:13:50.902Z,25.64
2018-08-10T14:16:19.595Z,25.46
2018-08-10T14:18:48.133Z,25.48
2018-08-10T14:21:22.492Z,25.61
2018-08-10T14:24:09.949Z,25.27
2018-08-10T14:26:38.609Z,24.76
2018-08-10T14:29:07.289Z,25.23
2018-08-10T14:31:35.928Z,25.42
2018-08-10T14:34:04.591Z,25.61
2018-08-10T14:36:33.112Z,25.77
2018-08-10T14:39:01.599Z,25.57
2018-08-10T14:41:30.039Z,25.50
2018-08-10T14:43:58.574Z,25.21
2018-08-10T14:46:27.163Z,24.44
2018-08-10T14:48:55.758Z,23.89
2018-08-10T14:51:24.321Z,24.27
2018-08-10T14:53:52.938Z,24.59
2018-08-10T14:56:21.538Z,25.03
2018-08-10T14:58:50.224Z,25.41
2018-08-10T15:01:18.833Z,25.46
2018-08-10T15:03:47.442Z,25.05
2018-08-10T15:06:16.116Z,24.43
2018-08-10T15:08:45.627Z,24.65
2018-08-10T15:11:14.236Z,24.85
2018-08-10T15:13:43.206Z,24.77
2018-08-10T15:16:11.707Z,24.81
2018-08-10T15:18:40.297Z,24.89
2018-08-10T15:21:08.905Z,24.10
2018-08-10T15:23:37.443Z,24.35
2018-08-10T15:26:06.254Z,24.66
2018-08-10T15:28:34.756Z,24.72
2018-08-10T15:31:03.265Z,24.95
2018-08-10T15:33:32.611Z,24.96
2018-08-10T15:36:01.214Z,24.85
2018-08-10T15:38:29.883Z,24.54
2018-08-10T15:40:58.447Z,24.35
2018-08-10T15:43:26.949Z,24.28
2018-08-10T15:45:55.372Z,23.90
2018-08-10T15:48:24.028Z,23.70
2018-08-10T15:50:52.498Z,23.47
2018-08-10T15:53:21.084Z,23.52
2018-08-10T15:55:49.577Z,24.06
2018-08-10T15:58:18.123Z,24.50
2018-08-10T16:00:46.752Z,24.59
2018-08-10T16:03:15.312Z,24.77
2018-08-10T16:05:43.889Z,24.98
2018-08-10T16:08:12.374Z,25.08
2018-08-10T16:10:40.938Z,25.20
2018-08-10T16:13:09.532Z,25.17
2018-08-10T16:15:38.090Z,24.72
2018-08-10T16:18:06.612Z,24.48
2018-08-10T16:20:35.265Z,24.25
2018-08-10T16:23:03.885Z,24.13
2018-08-10T16:25:32.474Z,24.18
2018-08-10T16:28:01.045Z,24.34
2018-08-10T16:30:29.630Z,24.52
2018-08-10T16:32:58.524Z,24.53
2018-08-10T16:35:27.077Z,24.54
2018-08-10T16:37:55.663Z,24.41
2018-08-10T16:40:24.170Z,24.27
2018-08-10T16:42:52.913Z,24.33
2018-08-10T16:45:21.535Z,24.46
2018-08-10T16:47:50.023Z,24.70
2018-08-10T16:50:19.614Z,24.71
2018-08-10T16:52:48.224Z,24.48
2018-08-10T16:55:19.067Z,24.09
2018-08-10T16:57:48.325Z,23.63
2018-08-10T17:00:18.765Z,23.32
2018-08-10T17:02:47.852Z,23.18
2018-08-10T17:05:16.520Z,23.07
2018-08-10T17:07:45.252Z,23.11
2018-08-10T17:10:13.970Z,23.23
2018-08-10T17:12:43.841Z,23.45
2018-08-10T17:15:14.969Z,23.27
2018-08-10T17:17:44.525Z,23.17
2018-08-10T17:20:13.597Z,23.30
2018-08-10T17:22:42.926Z,23.35
2018-08-10T17:25:13.021Z,23.30
2018-08-10T17:27:41.641Z,23.24
2018-08-10T17:30:12.628Z,23.13
2018-08-10T17:32:41.229Z,22.94
2018-08-10T17:35:11.372Z,22.83
2018-08-10T17:37:40.363Z,22.70
2018-08-10T17:40:09.832Z,22.60
2018-08-10T17:42:38.660Z,22.69
2018-08-10T17:45:10.776Z,22.59
2018-08-10T17:47:39.715Z,22.52
2018-08-10T17:50:13.192Z,22.48
2018-08-10T17:52:44.521Z,22.38
2018-08-10T17:55:14.244Z,22.41
2018-08-10T17:57:43.078Z,22.38
2018-08-10T18:00:15.468Z,22.32
2018-08-10T18:02:44.748Z,22.28
2018-08-10T18:05:14.416Z,22.28
2018-08-10T18:07:43.138Z,22.28
2018-08-10T18:10:12.643Z,22.25
2018-08-10T18:12:41.807Z,22.26
2018-08-10T18:15:14.752Z,22.25
2018-08-10T18:17:43.552Z,22.26
2018-08-10T18:20:15.338Z,22.23
2018-08-10T18:22:45.136Z,22.21
2018-08-10T18:25:15.028Z,22.17
2018-08-10T18:27:44.364Z,22.12
2018-08-10T18:30:15.740Z,22.04
2018-08-10T18:32:44.613Z,21.95
2018-08-10T18:35:13.195Z,21.91
2018-08-10T18:37:43.128Z,21.88
2018-08-10T18:40:13.290Z,21.78
2018-08-10T18:42:42.952Z,21.69
2018-08-10T18:45:13.330Z,21.61
2018-08-10T18:47:42.081Z,21.51
2018-08-10T18:50:12.404Z,21.46
2018-08-10T18:52:41.542Z,21.44
2018-08-10T18:55:12.589Z,21.37
2018-08-10T18:57:41.394Z,21.29
2018-08-10T19:00:12.942Z,21.19
2018-08-10T19:02:41.496Z,21.14
2018-08-10T19:05:12.330Z,21.05
2018-08-10T19:07:40.875Z,21.00
2018-08-10T19:10:11.279Z,21.03
2018-08-10T19:12:39.857Z,21.01
2018-08-10T19:15:11.162Z,20.98
2018-08-10T19:17:40.178Z,20.96
2018-08-10T19:20:32.417Z,20.91
2018-08-10T19:23:14.420Z,20.90
2018-08-10T19:25:44.445Z,20.85
2018-08-10T19:28:13.242Z,20.82
2018-08-10T19:30:42.650Z,20.89
2018-08-10T19:33:11.509Z,20.92
2018-08-10T19:35:40.593Z,20.95
2018-08-10T19:38:09.161Z,21.03
2018-08-10T19:40:37.756Z,21.06
2018-08-10T19:43:06.921Z,21.08
2018-08-10T19:45:36.890Z,21.04
2018-08-10T19:48:05.883Z,21.01
2018-08-10T19:50:34.644Z,20.96
2018-08-10T19:53:03.192Z,20.91
2018-08-10T19:55:31.869Z,20.86
2018-08-10T19:58:00.513Z,20.81
2018-08-10T20:00:29.127Z,20.76
2018-08-10T20:02:58.011Z,20.71
2018-08-10T20:05:26.548Z,20.66
2018-08-10T20:07:55.329Z,20.64
2018-08-10T20:10:24.022Z,20.61
2018-08-10T20:13:09.442Z,20.60
2018-08-10T20:15:41.867Z,20.57
2018-08-10T20:18:10.281Z,20.55
2018-08-10T20:20:38.976Z,20.53
2018-08-10T20:23:07.479Z,20.51
2018-08-10T20:25:36.422Z,20.47
2018-08-10T20:28:05.482Z,20.44
2018-08-10T20:30:34.483Z,20.44
2018-08-10T20:33:03.322Z,20.40
2018-08-10T20:35:32.061Z,20.39
2018-08-10T20:38:00.685Z,20.40
2018-08-10T20:40:29.489Z,20.36
2018-08-10T20:42:59.403Z,20.33
2018-08-10T20:45:30.385Z,20.31
2018-08-10T20:47:59.000Z,20.28
2018-08-10T20:50:27.608Z,20.24
2018-08-10T20:52:56.136Z,20.26
2018-08-10T20:55:24.929Z,20.24
2018-08-10T20:57:54.022Z,20.20
2018-08-10T21:00:22.753Z,20.14
2018-08-10T21:02:51.500Z,20.08
2018-08-10T21:05:20.354Z,20.00
2018-08-10T21:07:50.287Z,19.95
2018-08-10T21:10:18.963Z,19.94
2018-08-10T21:12:48.165Z,19.93
2018-08-10T21:15:17.428Z,19.95
2018-08-10T21:17:46.932Z,19.93
2018-08-10T21:20:16.912Z,19.93
2018-08-10T21:22:45.504Z,19.90
2018-08-10T21:25:14.623Z,19.89
2018-08-10T21:27:43.777Z,19.87
2018-08-10T21:30:16.362Z,19.83
2018-08-10T21:32:45.242Z,19.78
2018-08-10T21:35:14.206Z,19.75
2018-08-10T21:37:43.030Z,19.72
2018-08-10T21:40:12.018Z,19.67
2018-08-10T21:42:41.852Z,19.64
2018-08-10T21:45:11.843Z,19.58
2018-08-10T21:47:40.543Z,19.54
2018-08-10T21:50:12.811Z,19.49
2018-08-10T21:52:42.261Z,19.48
2018-08-10T21:55:11.325Z,19.43
2018-08-10T21:57:40.336Z,19.40
2018-08-10T22:00:51.279Z,19.37
2018-08-10T22:03:21.084Z,19.30
2018-08-10T22:05:50.143Z,19.27
2018-08-10T22:08:19.950Z,19.22
2018-08-10T22:10:48.923Z,19.15
2018-08-10T22:13:23.171Z,19.08
2018-08-10T22:15:56.995Z,19.01
2018-08-10T22:18:30.842Z,19.00
2018-08-10T22:20:59.433Z,18.97
2018-08-10T22:23:29.015Z,18.93
2018-08-10T22:25:58.593Z,18.92
2018-08-10T22:28:27.246Z,18.89
2018-08-10T22:30:56.004Z,18.86
2018-08-10T22:33:24.604Z,18.85
2018-08-10T22:35:53.270Z,18.84
2018-08-10T22:38:21.782Z,18.84
2018-08-10T22:40:50.286Z,18.88
2018-08-10T22:43:18.864Z,18.90
2018-08-10T22:45:47.467Z,18.90
2018-08-10T22:48:16.010Z,18.88
2018-08-10T22:50:44.649Z,18.88
2018-08-10T22:53:13.262Z,18.86
2018-08-10T22:55:41.768Z,18.83
2018-08-10T22:58:10.376Z,18.77
2018-08-10T23:00:39.027Z,18.73
2018-08-10T23:03:07.712Z,18.76
2018-08-10T23:05:36.225Z,18.79
2018-08-10T23:08:04.791Z,18.79
2018-08-10T23:10:33.271Z,18.86
2018-08-10T23:13:11.518Z,18.87
2018-08-10T23:15:40.142Z,18.78
2018-08-10T23:18:08.639Z,18.72
2018-08-10T23:20:37.169Z,18.67
2018-08-10T23:23:05.733Z,18.61
2018-08-10T23:25:34.215Z,18.46
2018-08-10T23:28:02.760Z,18.36
2018-08-10T23:30:32.568Z,18.33
2018-08-10T23:33:01.172Z,18.23
2018-08-10T23:35:29.682Z,18.05
2018-08-10T23:37:58.149Z,17.91
2018-08-10T23:40:26.723Z,17.82
2018-08-10T23:42:55.320Z,17.73
2018-08-10T23:45:23.921Z,17.57
2018-08-10T23:47:52.900Z,17.40
2018-08-10T23:50:21.500Z,17.10
2018-08-10T23:52:50.092Z,16.80
2018-08-10T23:55:19.743Z,16.54
2018-08-10T23:57:48.386Z,16.39
